Time;durP1;ratioP1;P1;durP2;ratioP2;P2;SDS_P1;SDS_P2;PMS_P1;PMS_P2;Temp;Humidity;BMP_temperature;BMP_pressure;BME280_temperature;BME280_humidity;BME280_pressure;Samples;Min_cycle;Max_cycle;Signal;HPM_P1;HPM_P2
2023/03/04 00:01:02;;;;;;;14.73;9.88;;;5.50;99.90;;;;;;5016642;28;20305;-49
2023/03/04 00:03:31;;;;;;;18.33;10.88;;;5.40;99.90;;;;;;5006975;28;20200;-50
2023/03/04 00:06:00;;;;;;;16.27;10.10;;;5.50;99.90;;;;;;5006741;28;20226;-50
2023/03/04 00:08:28;;;;;;;14.30;9.75;;;5.50;99.90;;;;;;5008562;28;20286;-47
2023/03/04 00:10:57;;;;;;;15.93;9.60;;;5.40;99.90;;;;;;5010417;28;20241;-48
2023/03/04 00:13:26;;;;;;;16.48;10.48;;;5.40;99.90;;;;;;5005597;28;20544;-48
2023/03/04 00:15:58;;;;;;;13.55;9.48;;;5.50;99.90;;;;;;5007265;28;20288;-50
2023/03/04 00:18:26;;;;;;;13.75;10.45;;;5.40;99.90;;;;;;5006664;28;20505;-48
2023/03/04 00:20:55;;;;;;;17.52;10.85;;;5.50;99.90;;;;;;5005963;28;20245;-48
2023/03/04 00:23:23;;;;;;;15.57;10.15;;;5.40;99.90;;;;;;5012872;28;20675;-48
2023/03/04 00:25:52;;;;;;;17.48;10.10;;;5.40;99.90;;;;;;5006577;28;20249;-49
2023/03/04 00:28:20;;;;;;;16.25;10.75;;;5.40;99.90;;;;;;5007865;28;20286;-49
2023/03/04 00:30:49;;;;;;;16.10;10.55;;;5.40;99.90;;;;;;5006870;28;20217;-50
2023/03/04 00:33:19;;;;;;;15.80;10.52;;;5.40;99.90;;;;;;5005334;28;20198;-49
2023/03/04 00:35:47;;;;;;;15.52;10.13;;;5.40;99.90;;;;;;5006656;28;20655;-49
2023/03/04 00:38:16;;;;;;;18.08;10.93;;;5.40;99.90;;;;;;5014465;28;20295;-49
2023/03/04 00:40:45;;;;;;;17.10;9.45;;;5.40;99.90;;;;;;5022920;28;20262;-50
2023/03/04 00:43:13;;;;;;;15.55;10.05;;;5.40;99.90;;;;;;5021321;28;20195;-50
2023/03/04 00:45:42;;;;;;;16.75;10.73;;;5.40;99.90;;;;;;5022578;28;20223;-48
2023/03/04 00:48:10;;;;;;;13.98;9.02;;;5.40;99.90;;;;;;5018178;28;20222;-51
2023/03/04 00:50:40;;;;;;;13.23;9.32;;;5.40;99.90;;;;;;5033739;28;20195;-51
2023/03/04 00:53:09;;;;;;;13.02;9.40;;;5.40;99.90;;;;;;5027536;28;20190;-48
2023/03/04 00:55:38;;;;;;;14.85;9.38;;;5.40;99.90;;;;;;5023681;28;20222;-50
2023/03/04 00:58:06;;;;;;;15.23;9.40;;;5.40;99.90;;;;;;5026280;28;20234;-48
2023/03/04 01:00:35;;;;;;;15.38;9.43;;;5.40;99.90;;;;;;5018117;28;20672;-49
2023/03/04 01:03:04;;;;;;;12.30;9.18;;;5.40;99.90;;;;;;5025521;28;20201;-51
2023/03/04 01:05:34;;;;;;;17.40;11.50;;;5.40;99.90;;;;;;5012624;28;20246;-49
2023/03/04 01:08:05;;;;;;;15.82;10.18;;;5.40;99.90;;;;;;5010972;28;20194;-49
2023/03/04 01:10:33;;;;;;;12.55;8.05;;;5.40;99.90;;;;;;5023669;28;20233;-49
2023/03/04 01:13:03;;;;;;;13.15;8.85;;;5.40;99.90;;;;;;5009696;28;20320;-48
2023/03/04 01:15:31;;;;;;;15.30;9.35;;;5.40;99.90;;;;;;5001354;28;20191;-49
2023/03/04 01:18:00;;;;;;;20.40;11.05;;;5.40;99.90;;;;;;5003629;28;20619;-51
2023/03/04 01:20:29;;;;;;;14.80;8.68;;;5.40;99.90;;;;;;5009281;28;20231;-49
2023/03/04 01:22:57;;;;;;;14.60;9.80;;;5.40;99.90;;;;;;5003324;28;20226;-49
2023/03/04 01:25:27;;;;;;;13.30;8.90;;;5.40;99.90;;;;;;5005824;28;20213;-49
2023/03/04 01:27:56;;;;;;;15.82;9.93;;;5.40;99.90;;;;;;5008116;28;20206;-50
2023/03/04 01:30:24;;;;;;;14.73;9.27;;;5.40;99.90;;;;;;5003929;28;20206;-48
2023/03/04 01:32:53;;;;;;;12.95;10.07;;;5.40;99.90;;;;;;5009140;28;20313;-49
2023/03/04 01:35:21;;;;;;;15.02;9.77;;;5.40;99.90;;;;;;5010139;28;20667;-48
2023/03/04 01:37:50;;;;;;;15.82;9.95;;;5.30;99.90;;;;;;5004048;28;20624;-49
2023/03/04 01:40:19;;;;;;;16.15;9.95;;;5.40;99.90;;;;;;5003053;28;20620;-50
2023/03/04 01:42:49;;;;;;;17.20;9.73;;;5.40;99.90;;;;;;5007581;28;20210;-47
2023/03/04 01:45:20;;;;;;;11.98;8.88;;;5.40;99.90;;;;;;5008706;28;20700;-48
2023/03/04 01:47:50;;;;;;;13.93;8.77;;;5.30;99.90;;;;;;5025432;28;20192;-50
2023/03/04 01:50:23;;;;;;;12.05;8.63;;;5.40;99.90;;;;;;5025300;28;20276;-49
2023/03/04 01:52:52;;;;;;;16.05;10.40;;;5.40;99.90;;;;;;5025746;28;20292;-50
2023/03/04 01:55:22;;;;;;;14.30;8.60;;;5.40;99.90;;;;;;5041505;28;20250;-49
2023/03/04 01:57:53;;;;;;;14.23;9.50;;;5.40;99.90;;;;;;5025769;28;20223;-49
2023/03/04 02:00:29;;;;;;;14.20;9.20;;;5.30;99.90;;;;;;5038503;28;20204;-51
2023/03/04 02:03:00;;;;;;;11.23;8.40;;;5.40;99.90;;;;;;5025643;28;20229;-48
2023/03/04 02:05:30;;;;;;;16.08;8.82;;;5.40;99.90;;;;;;5028337;28;20702;-48
2023/03/04 02:08:00;;;;;;;18.25;10.70;;;5.30;99.90;;;;;;5025922;28;20224;-49
2023/03/04 02:10:29;;;;;;;15.18;8.95;;;5.30;99.90;;;;;;5026013;28;20713;-51
2023/03/04 02:12:59;;;;;;;11.63;8.20;;;5.30;99.90;;;;;;5023550;28;20651;-50
2023/03/04 02:15:29;;;;;;;12.65;7.38;;;5.30;99.90;;;;;;5024253;28;20276;-47
2023/03/04 02:17:57;;;;;;;10.52;7.57;;;5.30;99.90;;;;;;5024534;28;20239;-51
2023/03/04 02:20:35;;;;;;;15.23;9.02;;;5.30;99.90;;;;;;5041854;28;20229;-48
2023/03/04 02:23:09;;;;;;;10.65;7.57;;;5.30;99.90;;;;;;5025350;28;20288;-50
2023/03/04 02:25:43;;;;;;;13.15;8.90;;;5.30;99.90;;;;;;5026511;28;20194;-49
2023/03/04 02:28:13;;;;;;;15.68;9.05;;;5.30;99.90;;;;;;5036460;28;20265;-48
2023/03/04 02:30:43;;;;;;;12.40;8.07;;;5.30;99.90;;;;;;5024426;28;20225;-48
2023/03/04 02:33:16;;;;;;;14.98;8.48;;;5.30;99.90;;;;;;5023721;28;20282;-48
2023/03/04 02:35:45;;;;;;;16.38;9.27;;;5.30;99.90;;;;;;5030091;28;20217;-50
2023/03/04 02:38:14;;;;;;;14.05;9.10;;;5.30;99.90;;;;;;5030501;28;20202;-49
2023/03/04 02:40:47;;;;;;;13.70;8.45;;;5.30;99.90;;;;;;5031144;28;20555;-48
2023/03/04 02:43:17;;;;;;;12.25;8.40;;;5.30;99.90;;;;;;5035524;28;20190;-48
2023/03/04 02:45:48;;;;;;;14.93;9.23;;;5.30;99.90;;;;;;5014352;28;20257;-47
2023/03/04 02:48:22;;;;;;;14.60;8.38;;;5.30;99.90;;;;;;5028461;28;20193;-48
2023/03/04 02:50:53;;;;;;;12.48;8.45;;;5.30;99.90;;;;;;5017735;28;20652;-49
2023/03/04 02:53:24;;;;;;;13.45;8.88;;;5.30;99.90;;;;;;5028915;28;20568;-52
2023/03/04 02:55:53;;;;;;;12.38;8.20;;;5.30;99.90;;;;;;5037291;28;20656;-49
2023/03/04 02:58:25;;;;;;;11.70;8.02;;;5.30;99.90;;;;;;5033057;28;20230;-49
2023/03/04 03:00:54;;;;;;;15.00;8.32;;;5.30;99.90;;;;;;5030044;28;20239;-50
2023/03/04 03:03:22;;;;;;;12.32;7.80;;;5.30;99.90;;;;;;5029177;28;20209;-49
2023/03/04 03:05:51;;;;;;;12.88;9.15;;;5.30;99.90;;;;;;5029104;28;20684;-49
2023/03/04 03:08:20;;;;;;;13.77;8.32;;;5.30;99.90;;;;;;5029823;28;20213;-47
2023/03/04 03:10:48;;;;;;;11.27;7.38;;;5.30;99.90;;;;;;5027914;28;20253;-48
2023/03/04 03:13:18;;;;;;;12.98;7.95;;;5.30;99.90;;;;;;5028817;28;20697;-47
2023/03/04 03:15:48;;;;;;;9.68;7.00;;;5.30;99.90;;;;;;5029141;28;20201;-49
2023/03/04 03:18:17;;;;;;;10.60;6.50;;;5.30;99.90;;;;;;5030548;28;20713;-48
2023/03/04 03:20:46;;;;;;;12.57;7.22;;;5.30;99.90;;;;;;5027066;28;20255;-47
2023/03/04 03:23:16;;;;;;;11.38;8.25;;;5.30;99.90;;;;;;5026633;28;20217;-47
2023/03/04 03:25:45;;;;;;;10.88;7.80;;;5.20;99.90;;;;;;5022309;28;20792;-51
2023/03/04 03:28:14;;;;;;;12.35;7.78;;;5.30;99.90;;;;;;5016333;28;20546;-49
2023/03/04 03:30:42;;;;;;;11.93;7.72;;;5.30;99.90;;;;;;5007286;28;20553;-51
2023/03/04 03:33:12;;;;;;;11.15;7.60;;;5.30;99.90;;;;;;5031276;28;20192;-48
2023/03/04 03:35:41;;;;;;;11.68;6.95;;;5.20;99.90;;;;;;5019377;28;20233;-47
2023/03/04 03:38:10;;;;;;;13.30;8.98;;;5.20;99.90;;;;;;5027623;28;20217;-49
2023/03/04 03:40:38;;;;;;;9.70;6.90;;;5.20;99.90;;;;;;5033178;28;20236;-48
2023/03/04 03:43:07;;;;;;;12.48;7.25;;;5.20;99.90;;;;;;5041885;28;20683;-50
2023/03/04 03:45:35;;;;;;;10.98;7.10;;;5.20;99.90;;;;;;5027478;28;20204;-49
2023/03/04 03:48:04;;;;;;;12.77;8.25;;;5.20;99.90;;;;;;5035989;28;20220;-49
2023/03/04 03:50:34;;;;;;;11.45;7.18;;;5.20;99.90;;;;;;5029904;28;20193;-49
2023/03/04 03:53:03;;;;;;;10.45;7.25;;;5.20;99.90;;;;;;5027474;28;20202;-49
2023/03/04 03:55:32;;;;;;;12.25;7.97;;;5.20;99.90;;;;;;5023736;28;20232;-48
2023/03/04 03:58:00;;;;;;;12.05;6.53;;;5.20;99.90;;;;;;5032274;28;20192;-48
2023/03/04 04:00:29;;;;;;;14.07;7.80;;;5.20;99.90;;;;;;5027424;28;20727;-48
2023/03/04 04:02:59;;;;;;;10.75;7.07;;;5.20;99.90;;;;;;5033442;28;20229;-49
2023/03/04 04:05:28;;;;;;;10.75;7.22;;;5.20;99.90;;;;;;5026389;28;20253;-49
2023/03/04 04:07:58;;;;;;;11.65;6.75;;;5.20;99.90;;;;;;5025850;28;20684;-50
2023/03/04 04:10:27;;;;;;;10.52;6.93;;;5.20;99.90;;;;;;5015276;28;20662;-49
2023/03/04 04:12:55;;;;;;;12.80;7.82;;;5.20;99.90;;;;;;5027434;28;20800;-50
2023/03/04 04:15:24;;;;;;;9.57;6.20;;;5.20;99.90;;;;;;5023097;28;20609;-49
2023/03/04 04:17:52;;;;;;;11.43;7.32;;;5.20;99.90;;;;;;5030265;28;20198;-50
2023/03/04 04:20:21;;;;;;;10.15;6.32;;;5.20;99.90;;;;;;5027400;28;20728;-49
2023/03/04 04:22:53;;;;;;;10.75;6.97;;;5.20;99.90;;;;;;5032557;28;20241;-50
2023/03/04 04:25:23;;;;;;;11.55;7.18;;;5.20;99.90;;;;;;5022557;28;20702;-49
2023/03/04 04:27:52;;;;;;;9.85;6.38;;;5.20;99.90;;;;;;5025006;28;20202;-48
2023/03/04 04:30:20;;;;;;;8.60;6.90;;;5.20;99.90;;;;;;5028142;28;20229;-48
2023/03/04 04:32:49;;;;;;;10.10;5.57;;;5.20;99.90;;;;;;5026110;28;20290;-51
2023/03/04 04:35:18;;;;;;;10.90;7.10;;;5.20;99.90;;;;;;5005554;28;20220;-48
2023/03/04 04:37:46;;;;;;;9.95;6.65;;;5.20;99.90;;;;;;5025565;28;20185;-48
2023/03/04 04:40:15;;;;;;;11.20;6.72;;;5.20;99.90;;;;;;5033136;28;20214;-49
2023/03/04 04:42:45;;;;;;;9.10;6.82;;;5.20;99.90;;;;;;5028122;28;20218;-49
2023/03/04 04:45:14;;;;;;;8.95;5.53;;;5.20;99.90;;;;;;5045532;28;20831;-50
2023/03/04 04:47:42;;;;;;;9.43;6.35;;;5.20;99.90;;;;;;5023999;28;20202;-48
2023/03/04 04:50:11;;;;;;;9.50;6.22;;;5.20;99.90;;;;;;5031309;28;20240;-49
2023/03/04 04:52:40;;;;;;;11.88;6.53;;;5.20;99.90;;;;;;5029882;28;20222;-48
2023/03/04 04:55:10;;;;;;;10.85;6.85;;;5.20;99.90;;;;;;5032070;28;20599;-50
2023/03/04 04:57:38;;;;;;;11.60;6.07;;;5.20;99.90;;;;;;5022043;28;20198;-49
2023/03/04 05:00:10;;;;;;;10.07;6.18;;;5.20;99.90;;;;;;5026720;28;20246;-48
2023/03/04 05:02:39;;;;;;;8.55;5.63;;;5.20;99.90;;;;;;5021483;28;20228;-47
2023/03/04 05:05:08;;;;;;;9.27;5.30;;;5.20;99.90;;;;;;5041734;28;20688;-48
2023/03/04 05:07:37;;;;;;;8.32;5.82;;;5.20;99.90;;;;;;5023660;28;20558;-48
2023/03/04 05:10:06;;;;;;;9.57;5.97;;;5.20;99.90;;;;;;5028601;28;20193;-49
2023/03/04 05:12:34;;;;;;;8.52;6.45;;;5.20;99.90;;;;;;5023838;28;20230;-48
2023/03/04 05:15:03;;;;;;;8.82;5.55;;;5.20;99.90;;;;;;5029396;28;20197;-51
2023/03/04 05:17:33;;;;;;;8.52;5.68;;;5.20;99.90;;;;;;5026651;28;20217;-48
2023/03/04 05:20:03;;;;;;;10.15;6.65;;;5.20;99.90;;;;;;5026940;28;20238;-49
2023/03/04 05:22:31;;;;;;;9.38;5.88;;;5.20;99.90;;;;;;5025648;28;20214;-47
2023/03/04 05:25:00;;;;;;;8.60;4.93;;;5.20;99.90;;;;;;5027848;28;20229;-50
2023/03/04 05:27:28;;;;;;;9.93;6.22;;;5.20;99.90;;;;;;5025545;28;20190;-49
2023/03/04 05:29:59;;;;;;;7.95;6.05;;;5.20;99.90;;;;;;5027033;28;20672;-50
2023/03/04 05:32:28;;;;;;;10.70;6.20;;;5.20;99.90;;;;;;5025158;28;20592;-48
2023/03/04 05:34:58;;;;;;;7.70;5.60;;;5.20;99.90;;;;;;5027025;28;20686;-48
2023/03/04 05:37:26;;;;;;;8.25;4.60;;;5.20;99.90;;;;;;5027954;28;20218;-49
2023/03/04 05:39:55;;;;;;;8.10;6.03;;;5.20;99.90;;;;;;5029921;28;20218;-48
2023/03/04 05:42:23;;;;;;;11.82;6.07;;;5.20;99.90;;;;;;5039443;28;20216;-48
2023/03/04 05:44:52;;;;;;;6.22;5.07;;;5.20;99.90;;;;;;5025371;28;20249;-49
2023/03/04 05:47:21;;;;;;;8.35;4.95;;;5.10;99.90;;;;;;5020028;28;20199;-50
2023/03/04 05:49:49;;;;;;;10.20;6.43;;;5.20;99.90;;;;;;5024733;28;20202;-48
2023/03/04 05:52:19;;;;;;;7.18;5.38;;;5.20;99.90;;;;;;5024610;28;20226;-48
2023/03/04 05:54:48;;;;;;;9.35;5.57;;;5.20;99.90;;;;;;5024017;28;20299;-48
2023/03/04 05:57:16;;;;;;;7.00;5.85;;;5.10;99.90;;;;;;5027025;28;20565;-50
2023/03/04 05:59:45;;;;;;;11.27;5.80;;;5.20;99.90;;;;;;5028135;28;20482;-50
2023/03/04 06:02:13;;;;;;;8.05;5.32;;;5.10;99.90;;;;;;5023659;28;20214;-49
2023/03/04 06:04:42;;;;;;;9.48;5.15;;;5.10;99.90;;;;;;5006238;28;20225;-47
2023/03/04 06:07:10;;;;;;;9.77;6.15;;;5.20;99.90;;;;;;5020942;28;20226;-50
2023/03/04 06:09:40;;;;;;;9.25;5.22;;;5.10;99.90;;;;;;5025559;28;20587;-49
2023/03/04 06:12:09;;;;;;;9.02;5.10;;;5.10;99.90;;;;;;5016399;28;20710;-49
2023/03/04 06:14:38;;;;;;;9.57;5.93;;;5.10;99.90;;;;;;5023450;28;20232;-47
2023/03/04 06:17:06;;;;;;;6.70;4.60;;;5.10;99.90;;;;;;5019451;28;20310;-48
2023/03/04 06:19:36;;;;;;;9.57;5.55;;;5.10;99.90;;;;;;5023611;28;20183;-50
2023/03/04 06:22:05;;;;;;;8.35;5.40;;;5.10;99.90;;;;;;5034076;28;20334;-49
2023/03/04 06:24:33;;;;;;;6.90;5.30;;;5.10;99.90;;;;;;5029596;28;20571;-47
2023/03/04 06:27:04;;;;;;;8.25;5.05;;;5.10;99.90;;;;;;5007421;28;20223;-48
2023/03/04 06:29:32;;;;;;;6.45;5.03;;;5.10;99.90;;;;;;5007960;28;20606;-47
2023/03/04 06:32:01;;;;;;;11.60;5.28;;;5.10;99.90;;;;;;5009008;28;20248;-48
2023/03/04 06:34:29;;;;;;;8.25;5.20;;;5.10;99.90;;;;;;5013429;28;20289;-49
2023/03/04 06:36:58;;;;;;;9.85;5.60;;;5.10;99.90;;;;;;5002938;28;20584;-47
2023/03/04 06:39:27;;;;;;;7.85;5.65;;;5.10;99.90;;;;;;5005105;28;20206;-48
2023/03/04 06:41:55;;;;;;;7.40;5.43;;;5.10;99.90;;;;;;5013438;28;20228;-48
2023/03/04 06:44:25;;;;;;;9.65;5.35;;;5.10;99.90;;;;;;5012602;28;20193;-49
2023/03/04 06:46:54;;;;;;;7.78;4.68;;;5.10;99.90;;;;;;5004142;28;20284;-49
2023/03/04 06:49:22;;;;;;;7.25;5.57;;;5.10;99.90;;;;;;5005207;28;20731;-49
2023/03/04 06:51:51;;;;;;;6.40;4.53;;;5.10;99.90;;;;;;5004182;28;20223;-47
2023/03/04 06:54:20;;;;;;;11.18;5.18;;;5.10;99.90;;;;;;5009039;28;20277;-52
2023/03/04 06:56:49;;;;;;;6.13;4.22;;;5.10;99.90;;;;;;5002681;28;20227;-48
2023/03/04 06:59:17;;;;;;;6.15;4.68;;;5.10;99.90;;;;;;5007923;28;20198;-49
2023/03/04 07:01:47;;;;;;;8.85;4.68;;;5.10;99.90;;;;;;4997573;28;20832;-50
2023/03/04 07:04:16;;;;;;;6.88;4.55;;;5.10;99.90;;;;;;5005194;28;20199;-49
2023/03/04 07:06:45;;;;;;;7.05;5.13;;;5.10;99.90;;;;;;4985796;28;20313;-48
2023/03/04 07:09:13;;;;;;;7.35;4.50;;;5.10;99.90;;;;;;5004713;28;20737;-48
2023/03/04 07:11:42;;;;;;;9.20;5.82;;;5.10;99.90;;;;;;5006227;28;20222;-48
2023/03/04 07:14:11;;;;;;;7.30;5.28;;;5.10;99.90;;;;;;5004403;28;20208;-48
2023/03/04 07:16:39;;;;;;;6.57;4.82;;;5.10;99.90;;;;;;5009539;28;20708;-49
2023/03/04 07:19:09;;;;;;;4.80;4.18;;;5.10;99.90;;;;;;5005691;28;20604;-48
2023/03/04 07:21:38;;;;;;;10.73;4.60;;;5.10;99.90;;;;;;5005523;28;20242;-51
2023/03/04 07:24:06;;;;;;;6.55;4.75;;;5.10;99.90;;;;;;5003314;28;20199;-49
2023/03/04 07:26:36;;;;;;;7.35;4.60;;;5.10;99.90;;;;;;4999822;28;20222;-50
2023/03/04 07:29:05;;;;;;;5.50;4.03;;;5.10;99.90;;;;;;5008944;28;20199;-49
2023/03/04 07:31:35;;;;;;;8.85;5.70;;;5.10;99.90;;;;;;4991788;28;20984;-48
2023/03/04 07:34:06;;;;;;;6.70;4.90;;;5.10;99.90;;;;;;5009017;28;20202;-48
2023/03/04 07:36:36;;;;;;;4.88;3.85;;;5.10;99.90;;;;;;5023566;28;20227;-46
2023/03/04 07:39:06;;;;;;;8.93;4.40;;;5.10;99.90;;;;;;5002442;28;20223;-50
2023/03/04 07:41:36;;;;;;;8.18;4.68;;;5.10;99.90;;;;;;4998907;28;20222;-48
2023/03/04 07:44:06;;;;;;;6.15;4.60;;;5.10;99.90;;;;;;5008267;28;20201;-48
2023/03/04 07:46:35;;;;;;;6.30;4.68;;;5.10;99.90;;;;;;4988279;28;20222;-49
2023/03/04 07:49:04;;;;;;;5.82;4.20;;;5.10;99.90;;;;;;5008940;28;20734;-50
2023/03/04 07:51:33;;;;;;;5.93;4.68;;;5.10;99.90;;;;;;5003340;28;20715;-50
2023/03/04 07:54:04;;;;;;;7.03;4.55;;;5.10;99.90;;;;;;5004850;28;20187;-49
2023/03/04 07:56:33;;;;;;;6.45;4.25;;;5.10;99.90;;;;;;5008588;28;20222;-50
2023/03/04 07:59:02;;;;;;;6.13;4.03;;;5.10;99.90;;;;;;5039902;28;20201;-48
2023/03/04 08:01:32;;;;;;;6.00;4.25;;;5.10;99.90;;;;;;5017840;28;20225;-49
2023/03/04 08:04:01;;;;;;;5.65;3.92;;;5.10;99.90;;;;;;5027332;28;20202;-48
2023/03/04 08:06:31;;;;;;;6.93;4.20;;;5.10;99.90;;;;;;5021743;28;20310;-49
2023/03/04 08:09:01;;;;;;;7.57;5.60;;;5.10;99.90;;;;;;5024628;28;20319;-48
2023/03/04 08:11:32;;;;;;;6.97;4.40;;;5.10;99.90;;;;;;5035270;28;20225;-49
2023/03/04 08:14:01;;;;;;;4.60;4.00;;;5.10;99.90;;;;;;5025356;28;20340;-49
2023/03/04 08:16:30;;;;;;;4.43;3.40;;;5.10;99.90;;;;;;5019351;28;20277;-49
2023/03/04 08:19:01;;;;;;;5.30;3.38;;;5.10;99.90;;;;;;5024599;28;20205;-48
2023/03/04 08:21:29;;;;;;;6.90;4.25;;;5.10;99.90;;;;;;5020335;28;20249;-50
2023/03/04 08:24:01;;;;;;;5.70;3.72;;;5.10;99.90;;;;;;5000745;28;20202;-48
2023/03/04 08:26:34;;;;;;;6.40;3.65;;;5.10;99.90;;;;;;5015367;28;20265;-48
2023/03/04 08:29:04;;;;;;;5.47;4.10;;;5.10;99.90;;;;;;5036201;28;20599;-49
2023/03/04 08:31:33;;;;;;;7.57;4.10;;;5.10;99.90;;;;;;5023938;28;20209;-49
2023/03/04 08:34:03;;;;;;;7.25;4.30;;;5.10;99.90;;;;;;5028083;28;20204;-48
2023/03/04 08:36:32;;;;;;;5.95;4.68;;;5.10;99.90;;;;;;5019707;28;20221;-49
2023/03/04 08:39:00;;;;;;;7.70;4.15;;;5.10;99.90;;;;;;5022028;28;20226;-50
2023/03/04 08:41:29;;;;;;;7.43;3.78;;;5.10;99.90;;;;;;4999356;28;20225;-48
2023/03/04 08:44:01;;;;;;;4.93;3.70;;;5.10;99.90;;;;;;4997650;28;20316;-49
2023/03/04 08:46:29;;;;;;;7.90;3.97;;;5.00;99.90;;;;;;5003912;28;20222;-47
2023/03/04 08:48:58;;;;;;;6.03;3.47;;;5.10;99.90;;;;;;5007608;28;20223;-48
2023/03/04 08:51:27;;;;;;;7.78;4.10;;;5.10;99.90;;;;;;5007797;28;20226;-48
2023/03/04 08:53:55;;;;;;;5.90;3.47;;;5.10;99.90;;;;;;5007676;28;20285;-49
2023/03/04 08:56:24;;;;;;;4.55;3.47;;;5.10;99.90;;;;;;5004997;28;20226;-48
2023/03/04 08:58:53;;;;;;;4.88;3.60;;;5.10;99.90;;;;;;4997058;28;20226;-48
2023/03/04 09:01:23;;;;;;;5.78;3.55;;;5.10;99.90;;;;;;5004063;28;20223;-49
2023/03/04 09:03:51;;;;;;;4.28;3.22;;;5.10;99.90;;;;;;4998800;28;20254;-47
2023/03/04 09:06:21;;;;;;;5.75;3.47;;;5.10;99.90;;;;;;5001767;28;20246;-47
2023/03/04 09:08:49;;;;;;;5.30;2.70;;;5.10;99.90;;;;;;5000464;28;20207;-48
2023/03/04 09:11:18;;;;;;;7.28;3.92;;;5.10;99.90;;;;;;5001814;28;20246;-49
2023/03/04 09:13:47;;;;;;;6.35;3.85;;;5.10;99.90;;;;;;5001603;28;20198;-48
2023/03/04 09:16:17;;;;;;;4.00;3.22;;;5.10;99.90;;;;;;5003461;28;20306;-48
2023/03/04 09:18:47;;;;;;;5.15;3.20;;;5.10;99.90;;;;;;4998592;28;20195;-49
2023/03/04 09:21:16;;;;;;;6.97;3.80;;;5.10;99.90;;;;;;5020714;28;20229;-47
2023/03/04 09:23:44;;;;;;;7.10;3.63;;;5.10;99.90;;;;;;5003745;28;20666;-48
2023/03/04 09:26:20;;;;;;;4.32;2.80;;;5.10;99.90;;;;;;4997885;28;20659;-48
2023/03/04 09:28:51;;;;;;;3.70;2.60;;;5.10;99.90;;;;;;5003997;28;20321;-50
2023/03/04 09:31:20;;;;;;;4.70;2.85;;;5.10;99.90;;;;;;4998777;28;20225;-47
2023/03/04 09:33:52;;;;;;;5.68;4.28;;;5.10;99.90;;;;;;5001970;28;20210;-49
2023/03/04 09:36:21;;;;;;;5.93;3.72;;;5.10;99.90;;;;;;5005148;28;20268;-47
2023/03/04 09:38:50;;;;;;;4.35;3.45;;;5.10;99.90;;;;;;5004915;28;20202;-49
2023/03/04 09:41:22;;;;;;;3.90;2.63;;;5.10;99.90;;;;;;5004779;28;20222;-49
2023/03/04 09:43:53;;;;;;;4.63;2.70;;;5.10;99.90;;;;;;5001596;28;20199;-48
2023/03/04 09:46:29;;;;;;;4.40;3.25;;;5.10;99.90;;;;;;5004259;28;20951;-49
2023/03/04 09:48:59;;;;;;;4.78;2.83;;;5.10;99.90;;;;;;5004036;28;20817;-48
2023/03/04 09:51:44;;;;;;;5.88;3.13;;;5.10;99.90;;;;;;5004585;28;20233;-49
2023/03/04 09:54:22;;;;;;;4.90;3.13;;;5.20;99.90;;;;;;5004417;28;20199;-48
2023/03/04 09:56:52;;;;;;;4.97;2.97;;;5.20;99.90;;;;;;5004377;28;20231;-49
2023/03/04 09:59:25;;;;;;;4.15;2.95;;;5.20;99.90;;;;;;5007352;28;20203;-49
2023/03/04 10:01:56;;;;;;;4.05;3.17;;;5.30;99.90;;;;;;5004037;28;20319;-50
2023/03/04 10:04:34;;;;;;;4.78;3.08;;;5.30;99.90;;;;;;5007920;28;20272;-52
2023/03/04 10:07:14;;;;;;;5.40;2.55;;;5.30;99.90;;;;;;4998718;28;20228;-51
2023/03/04 10:09:47;;;;;;;6.15;2.63;;;5.40;99.90;;;;;;4999898;28;20196;-49
2023/03/04 10:12:20;;;;;;;9.10;3.00;;;5.40;99.90;;;;;;5009107;28;20225;-48
2023/03/04 10:14:52;;;;;;;7.55;3.22;;;5.40;99.90;;;;;;5006342;28;20290;-50
2023/03/04 10:17:27;;;;;;;7.72;3.10;;;5.40;99.90;;;;;;5006652;28;20223;-49
2023/03/04 10:20:02;;;;;;;4.35;2.40;;;5.40;99.90;;;;;;5003082;28;20194;-49
2023/03/04 10:22:34;;;;;;;4.60;2.80;;;5.40;99.90;;;;;;5007146;28;20214;-48
2023/03/04 10:25:16;;;;;;;6.38;2.67;;;5.40;99.90;;;;;;5008374;28;20190;-49
2023/03/04 10:27:51;;;;;;;5.68;2.38;;;5.40;99.90;;;;;;5025178;28;20199;-51
2023/03/04 10:30:31;;;;;;;3.75;2.53;;;5.40;99.90;;;;;;5009642;28;20221;-49
2023/03/04 10:33:00;;;;;;;6.70;2.78;;;5.40;99.90;;;;;;4999626;28;20219;-48
2023/03/04 10:35:36;;;;;;;7.47;2.63;;;5.40;99.90;;;;;;5018927;28;20251;-49
2023/03/04 10:38:06;;;;;;;4.15;2.50;;;5.40;99.90;;;;;;5005628;28;20197;-49
2023/03/04 10:40:40;;;;;;;5.00;1.83;;;5.40;99.90;;;;;;5005466;28;20266;-49
2023/03/04 10:43:15;;;;;;;3.35;1.90;;;5.40;99.90;;;;;;5007055;28;20199;-50
2023/03/04 10:45:44;;;;;;;2.90;2.35;;;5.40;99.90;;;;;;5000280;28;20282;-49
2023/03/04 10:48:24;;;;;;;3.15;2.00;;;5.40;99.90;;;;;;5004647;28;20192;-50
2023/03/04 10:50:55;;;;;;;3.45;2.25;;;5.40;99.90;;;;;;5006346;28;20254;-48
2023/03/04 10:53:33;;;;;;;3.33;2.10;;;5.40;99.90;;;;;;5005521;28;20188;-48
2023/03/04 10:56:02;;;;;;;5.72;1.67;;;5.40;99.90;;;;;;5012184;28;20201;-50
2023/03/04 10:58:30;;;;;;;2.45;2.00;;;5.40;99.90;;;;;;5002343;28;20567;-48
2023/03/04 11:01:04;;;;;;;6.38;2.72;;;5.40;99.90;;;;;;5007707;28;20230;-49
2023/03/04 11:03:35;;;;;;;4.28;2.33;;;5.40;99.90;;;;;;5023870;28;20260;-48
2023/03/04 11:06:16;;;;;;;7.68;2.30;;;5.40;99.90;;;;;;5005525;28;21097;-49
2023/03/04 11:08:52;;;;;;;3.95;1.90;;;5.40;99.90;;;;;;5010757;28;20241;-49
2023/03/04 11:11:28;;;;;;;3.63;1.73;;;5.40;99.90;;;;;;5002912;28;20694;-48
2023/03/04 11:14:00;;;;;;;6.30;1.90;;;5.40;99.90;;;;;;5009435;28;20206;-49
2023/03/04 11:16:31;;;;;;;4.80;1.88;;;5.40;99.90;;;;;;5008872;28;20309;-50
2023/03/04 11:19:05;;;;;;;3.28;2.03;;;5.40;99.90;;;;;;5002179;28;20382;-49
2023/03/04 11:21:39;;;;;;;1.50;1.35;;;5.40;99.90;;;;;;5003761;28;20245;-49
2023/03/04 11:24:14;;;;;;;2.22;1.75;;;5.40;99.90;;;;;;4988656;28;20771;-48
2023/03/04 11:27:01;;;;;;;3.50;2.00;;;5.40;99.90;;;;;;5008782;28;20723;-50
2023/03/04 11:29:35;;;;;;;2.78;1.95;;;5.40;99.90;;;;;;5000292;28;20198;-49
2023/03/04 11:32:09;;;;;;;3.30;1.73;;;5.40;99.90;;;;;;5018560;28;20246;-49
2023/03/04 11:34:42;;;;;;;4.85;1.92;;;5.40;99.90;;;;;;5023113;28;20629;-49
2023/03/04 11:37:21;;;;;;;1.90;1.60;;;5.40;99.90;;;;;;5042938;28;20219;-50
2023/03/04 11:39:54;;;;;;;4.15;1.92;;;5.40;99.90;;;;;;5027180;28;20215;-49
2023/03/04 11:42:33;;;;;;;3.35;1.55;;;5.40;99.90;;;;;;4990769;28;20727;-49
2023/03/04 11:45:02;;;;;;;3.70;1.70;;;5.40;99.90;;;;;;5008010;28;20198;-49
2023/03/04 11:47:58;;;;;;;3.20;1.90;;;5.40;99.90;;;;;;5022252;28;20188;-50
2023/03/04 11:50:31;;;;;;;2.60;1.92;;;5.40;99.90;;;;;;5013651;28;20237;-48
2023/03/04 11:53:33;;;;;;;2.33;1.77;;;5.40;99.90;;;;;;5028525;28;20210;-49
2023/03/04 11:56:16;;;;;;;6.07;2.13;;;5.40;99.90;;;;;;5027886;28;20302;-49
2023/03/04 11:59:15;;;;;;;3.25;2.28;;;5.40;99.90;;;;;;5025712;28;20252;-49
2023/03/04 12:01:54;;;;;;;3.08;1.35;;;5.40;99.90;;;;;;5012457;28;20231;-49
2023/03/04 12:04:34;;;;;;;2.60;2.33;;;5.40;99.90;;;;;;5009067;28;20210;-50
2023/03/04 12:07:21;;;;;;;2.40;1.80;;;5.40;99.90;;;;;;4999855;28;20280;-49
2023/03/04 12:10:04;;;;;;;2.67;2.22;;;5.40;99.90;;;;;;5008760;28;20256;-48
2023/03/04 12:13:01;;;;;;;1.58;1.45;;;5.40;99.90;;;;;;5024940;28;20249;-48
2023/03/04 12:15:38;;;;;;;3.53;1.90;;;5.40;99.90;;;;;;5027916;28;20198;-48
2023/03/04 12:18:20;;;;;;;1.88;1.67;;;5.40;99.90;;;;;;5039074;28;20575;-49
2023/03/04 12:21:03;;;;;;;4.40;2.25;;;5.40;99.90;;;;;;5020144;28;20773;-48
2023/03/04 12:23:52;;;;;;;3.08;1.73;;;5.40;99.90;;;;;;5018841;28;20261;-48
2023/03/04 12:26:30;;;;;;;2.20;1.33;;;5.40;99.90;;;;;;5011941;28;20631;-51
2023/03/04 12:29:04;;;;;;;2.67;1.98;;;5.40;99.90;;;;;;5008341;28;20222;-50
2023/03/04 12:31:38;;;;;;;3.55;1.75;;;5.40;99.90;;;;;;5036122;28;20317;-49
2023/03/04 12:34:38;;;;;;;3.70;1.30;;;5.40;99.90;;;;;;5034914;28;20202;-49
2023/03/04 12:37:38;;;;;;;2.45;1.90;;;5.40;99.90;;;;;;5010993;28;20222;-49
2023/03/04 12:40:25;;;;;;;3.83;1.70;;;5.40;99.90;;;;;;4989656;28;20217;-48
2023/03/04 12:43:08;;;;;;;1.63;1.38;;;5.40;99.90;;;;;;5009889;28;20230;-48
2023/03/04 12:45:44;;;;;;;2.47;1.17;;;5.40;99.90;;;;;;5005913;28;20219;-48
2023/03/04 12:48:23;;;;;;;2.20;1.35;;;5.40;99.90;;;;;;5008108;28;20187;-48
2023/03/04 12:51:03;;;;;;;5.50;1.33;;;5.50;99.90;;;;;;5003099;28;20199;-53
2023/03/04 12:53:38;;;;;;;2.60;1.55;;;5.50;99.90;;;;;;5010629;28;20191;-49
2023/03/04 12:56:07;;;;;;;2.58;1.48;;;5.50;99.90;;;;;;5012344;28;20221;-49
2023/03/04 12:58:39;;;;;;;4.85;1.65;;;5.50;99.90;;;;;;5014430;28;20199;-50
2023/03/04 13:01:14;;;;;;;2.97;1.42;;;5.50;99.90;;;;;;5018700;28;20233;-49
2023/03/04 13:03:53;;;;;;;4.53;1.50;;;5.40;99.90;;;;;;5016743;28;20269;-49
2023/03/04 13:06:34;;;;;;;4.60;1.50;;;5.40;99.90;;;;;;5016023;28;20224;-49
2023/03/04 13:09:10;;;;;;;1.52;1.13;;;5.50;99.90;;;;;;5018301;28;20190;-51
2023/03/04 13:12:04;;;;;;;4.13;1.42;;;5.40;99.90;;;;;;4996753;28;20286;-48
2023/03/04 13:14:35;;;;;;;2.83;1.20;;;5.50;99.90;;;;;;5011039;28;20275;-47